Mirador, Brazil
Current Conditions -  °F | °C
As of 1:00 AM on Thursday 29 Jan 2015 (Local Time) from SBTE Reporting Station
Clear Clear  
Wind Chill: 81°   Ceiling: Unl
Heat Index: 85°   Visibility: 6mi
Dew Point: 72°   Wind: 9mph
Humidity: 74%   Direction: 330°NNW
Pressure: 29.8"   Gusts: NA
Location:  6.37°S, 44.36°W
Report Text: SBTE 290400Z 33008KT CAVOK 27/22 Q1009
Loading
Personal Weather Stations






























Interactive Weather Map New forecast layout! Learn more

10-Day Weather Forecast

Advertisements
Track Severe Weather on mobile